TimeEST,TemperatureF,Dew PointF,Humidity,Sea Level PressureIn,VisibilityMPH,Wind Direction,Wind SpeedMPH,Gust SpeedMPH,PrecipitationIn,Events,Conditions,WindDirDegrees,DateUTC
12:56 AM,19.0,6.1,57,30.16,10.0,North,10.4,-,N/A,,Clear,350,2013-12-31 05:56:00
1:56 AM,18.0,5.0,57,30.17,10.0,North,5.8,-,N/A,,Clear,350,2013-12-31 06:56:00
2:56 AM,18.0,3.9,54,30.17,10.0,NNW,10.4,-,N/A,,Clear,340,2013-12-31 07:56:00
3:56 AM,17.1,3.9,56,30.15,10.0,North,6.9,-,N/A,,Clear,350,2013-12-31 08:56:00
4:56 AM,17.1,5.0,59,30.15,10.0,NNW,8.1,-,N/A,,Clear,340,2013-12-31 09:56:00
5:56 AM,16.0,5.0,62,30.16,10.0,NNW,6.9,-,N/A,,Clear,340,2013-12-31 10:56:00
6:56 AM,17.1,6.1,62,30.15,10.0,North,4.6,-,N/A,,Clear,360,2013-12-31 11:56:00
7:56 AM,15.1,7.0,70,30.15,10.0,NNW,3.5,-,N/A,,Clear,340,2013-12-31 12:56:00
8:56 AM,19.9,7.0,57,30.14,10.0,NNW,5.8,-,N/A,,Scattered Clouds,340,2013-12-31 13:56:00
9:56 AM,21.9,7.0,53,30.15,10.0,Variable,3.5,-,N/A,,Clear,0,2013-12-31 14:56:00
10:56 AM,23.0,9.0,55,30.12,10.0,SW,6.9,-,N/A,,Clear,220,2013-12-31 15:56:00
11:56 AM,25.0,5.0,43,30.09,10.0,WNW,9.2,-,N/A,,Clear,290,2013-12-31 16:56:00
12:56 PM,26.1,9.0,49,30.08,10.0,SW,9.2,-,N/A,,Clear,230,2013-12-31 17:56:00
1:56 PM,27.0,10.9,51,30.06,10.0,WSW,11.5,-,N/A,,Clear,250,2013-12-31 18:56:00
2:56 PM,27.0,14.0,58,30.07,10.0,West,11.5,-,N/A,,Mostly Cloudy,260,2013-12-31 19:56:00
3:56 PM,28.0,16.0,61,30.09,9.0,West,12.7,-,N/A,,Mostly Cloudy,270,2013-12-31 20:56:00
4:56 PM,27.0,17.1,66,30.11,10.0,WNW,6.9,-,N/A,,Mostly Cloudy,290,2013-12-31 21:56:00
5:56 PM,26.1,16.0,66,30.11,9.0,NNW,3.5,-,N/A,,Clear,330,2013-12-31 22:56:00
6:56 PM,26.1,17.1,69,30.12,9.0,West,5.8,-,N/A,,Clear,270,2013-12-31 23:56:00
7:56 PM,28.0,18.0,66,30.16,9.0,West,6.9,-,N/A,,Clear,260,2014-01-01 00:56:00
8:56 PM,28.9,18.0,64,30.17,9.0,West,10.4,-,N/A,,Clear,280,2014-01-01 01:56:00
9:56 PM,28.0,17.1,63,30.19,9.0,WNW,9.2,-,N/A,,Clear,290,2014-01-01 02:56:00
10:56 PM,27.0,16.0,63,30.21,10.0,WNW,8.1,-,N/A,,Clear,290,2014-01-01 03:56:00
11:56 PM,27.0,12.9,56,30.23,10.0,West,9.2,-,N/A,,Partly Cloudy,280,2014-01-01 04:56:00